createdAt,value
2022-11-03T00:01:06.907Z,6.00
2022-11-03T00:03:34.162Z,6.13
2022-11-03T00:06:07.328Z,5.57
2022-11-03T00:08:39.023Z,5.85
2022-11-03T00:11:10.843Z,6.65
2022-11-03T00:13:39.047Z,5.82
2022-11-03T00:16:07.036Z,5.75
2022-11-03T00:18:35.659Z,5.70
2022-11-03T00:21:04.045Z,5.45
2022-11-03T00:23:33.095Z,5.78
2022-11-03T00:26:04.467Z,5.20
2022-11-03T00:28:32.988Z,6.50
2022-11-03T00:31:01.447Z,6.30
2022-11-03T00:33:34.587Z,5.78
2022-11-03T00:36:02.188Z,5.38
2022-11-03T00:38:30.106Z,5.53
2022-11-03T00:40:58.416Z,5.10
2022-11-03T00:43:26.286Z,5.13
2022-11-03T00:45:54.017Z,5.65
2022-11-03T00:48:30.885Z,5.50
2022-11-03T00:51:17.021Z,5.68
2022-11-03T00:53:44.296Z,5.35
2022-11-03T00:56:12.439Z,5.40
2022-11-03T00:58:39.691Z,5.25
2022-11-03T01:01:08.676Z,5.60
2022-11-03T01:03:36.932Z,4.95
2022-11-03T01:06:24.882Z,5.03
2022-11-03T01:08:52.174Z,5.63
2022-11-03T01:11:39.338Z,5.20
2022-11-03T01:14:06.706Z,5.72
2022-11-03T01:16:34.159Z,5.50
2022-11-03T01:19:01.862Z,4.57
2022-11-03T01:21:29.201Z,5.05
2022-11-03T01:23:56.795Z,5.20
2022-11-03T01:26:24.046Z,5.25
2022-11-03T01:28:53.438Z,5.10
2022-11-03T01:31:21.731Z,4.43
2022-11-03T01:33:50.368Z,4.60
2022-11-03T01:36:17.957Z,4.97
2022-11-03T01:38:45.624Z,4.82
2022-11-03T01:41:18.135Z,4.97
2022-11-03T01:43:45.886Z,4.57
2022-11-03T01:46:13.105Z,4.32
2022-11-03T01:48:43.648Z,5.10
2022-11-03T01:51:12.406Z,5.03
2022-11-03T01:53:42.547Z,4.82
2022-11-03T01:56:11.767Z,4.60
2022-11-03T01:58:40.390Z,5.03
2022-11-03T02:01:07.873Z,4.45
2022-11-03T02:03:38.758Z,4.13
2022-11-03T02:06:06.520Z,4.18
2022-11-03T02:08:47.582Z,3.92
2022-11-03T02:11:33.900Z,4.88
2022-11-03T02:14:01.263Z,4.30
2022-11-03T02:16:30.769Z,4.68
2022-11-03T02:19:01.719Z,4.40
2022-11-03T02:21:31.011Z,4.85
2022-11-03T02:24:10.879Z,4.90
2022-11-03T02:26:38.154Z,4.88
2022-11-03T02:29:05.533Z,5.03
2022-11-03T02:31:51.683Z,5.60
2022-11-03T02:34:25.190Z,5.18
2022-11-03T02:36:55.199Z,5.55
2022-11-03T02:39:22.528Z,5.18
2022-11-03T02:41:51.077Z,5.32
2022-11-03T02:44:19.864Z,4.38
2022-11-03T02:46:49.360Z,6.05
2022-11-03T02:49:16.713Z,5.10
2022-11-03T02:51:44.183Z,4.53
2022-11-03T02:54:21.427Z,5.45
2022-11-03T02:56:56.691Z,5.35
2022-11-03T02:59:26.990Z,5.18
2022-11-03T03:02:07.283Z,5.05
2022-11-03T03:04:37.555Z,4.85
2022-11-03T03:07:09.394Z,5.40
2022-11-03T03:09:41.329Z,5.03
2022-11-03T03:12:09.656Z,5.13
2022-11-03T03:14:38.525Z,4.18
2022-11-03T03:17:07.970Z,4.25
2022-11-03T03:19:58.644Z,5.18
2022-11-03T03:22:29.817Z,4.82
2022-11-03T03:25:18.086Z,5.53
2022-11-03T03:27:48.503Z,5.13
2022-11-03T03:30:16.703Z,5.47
2022-11-03T03:32:50.823Z,5.13
2022-11-03T03:35:20.585Z,4.43
2022-11-03T03:37:50.071Z,4.40
2022-11-03T03:40:20.037Z,5.10
2022-11-03T03:42:48.268Z,5.57
2022-11-03T03:45:16.024Z,5.47
2022-11-03T03:47:44.354Z,5.30
2022-11-03T03:50:12.802Z,6.28
2022-11-03T03:52:40.044Z,5.28
2022-11-03T03:55:16.691Z,6.03
2022-11-03T03:57:44.463Z,6.00
2022-11-03T04:00:14.135Z,6.00
2022-11-03T04:02:42.963Z,6.75
2022-11-03T04:05:10.298Z,19.33
2022-11-03T04:07:49.597Z,21.92
2022-11-03T04:10:18.330Z,10.15
2022-11-03T04:13:05.681Z,9.02
2022-11-03T04:15:52.705Z,7.40
2022-11-03T04:18:39.540Z,6.13
2022-11-03T04:21:26.204Z,6.13
2022-11-03T04:23:53.454Z,6.18
2022-11-03T04:26:24.602Z,6.82
2022-11-03T04:28:53.895Z,5.60
2022-11-03T04:31:21.671Z,5.88
2022-11-03T04:33:49.798Z,5.57
2022-11-03T04:36:21.293Z,6.20
2022-11-03T04:38:48.862Z,5.05
2022-11-03T04:41:21.075Z,5.38
2022-11-03T04:43:48.544Z,5.18
2022-11-03T04:46:24.667Z,5.72
2022-11-03T04:48:53.574Z,5.38
2022-11-03T04:51:23.172Z,5.78
2022-11-03T04:53:55.538Z,4.72
2022-11-03T04:56:26.321Z,5.13
2022-11-03T04:58:54.189Z,4.65
2022-11-03T05:01:24.209Z,4.70
2022-11-03T05:03:53.967Z,4.57
2022-11-03T05:06:22.847Z,5.90
2022-11-03T05:08:56.050Z,5.43
2022-11-03T05:11:29.359Z,4.70
2022-11-03T05:16:24.627Z,5.60
2022-11-03T05:18:51.853Z,6.35
2022-11-03T05:21:20.224Z,13.93
2022-11-03T05:23:49.144Z,7.38
2022-11-03T05:26:21.477Z,6.28
2022-11-03T05:28:54.184Z,32.05
2022-11-03T05:31:21.350Z,7.53
2022-11-03T05:33:51.375Z,6.95
2022-11-03T05:36:23.196Z,5.70
2022-11-03T05:38:51.170Z,13.90
2022-11-03T05:41:24.443Z,10.02
2022-11-03T05:43:57.157Z,9.85
2022-11-03T05:46:24.927Z,8.85
2022-11-03T05:48:52.376Z,6.55
2022-11-03T05:51:24.390Z,6.80
2022-11-03T05:53:54.501Z,6.22
2022-11-03T05:56:25.441Z,6.38
2022-11-03T05:58:54.697Z,7.43
2022-11-03T06:01:39.950Z,7.55
2022-11-03T06:04:19.699Z,9.85
2022-11-03T06:06:53.078Z,36.75
2022-11-03T06:09:22.288Z,13.70
2022-11-03T06:11:50.378Z,31.48
2022-11-03T06:14:25.075Z,36.15
2022-11-03T06:16:52.342Z,31.58
2022-11-03T06:19:25.192Z,26.85
2022-11-03T06:21:52.990Z,19.80
2022-11-03T06:24:21.856Z,19.70
2022-11-03T06:26:51.116Z,6.45
2022-11-03T06:29:19.794Z,7.05
2022-11-03T06:31:48.585Z,6.78
2022-11-03T06:34:31.235Z,7.95
2022-11-03T06:37:01.302Z,6.60
2022-11-03T06:39:29.193Z,6.78
2022-11-03T06:41:56.517Z,7.05
2022-11-03T06:44:25.302Z,8.93
2022-11-03T06:46:58.152Z,10.40
2022-11-03T06:49:30.351Z,12.45
2022-11-03T06:52:01.017Z,13.60
2022-11-03T06:54:28.464Z,14.43
2022-11-03T06:56:57.701Z,18.63
2022-11-03T06:59:26.464Z,21.67
2022-11-03T07:01:57.421Z,30.10
2022-11-03T07:04:30.306Z,21.35
2022-11-03T07:07:01.867Z,20.50
2022-11-03T07:09:29.154Z,21.25
2022-11-03T07:11:59.856Z,16.92
2022-11-03T07:14:33.982Z,20.67
2022-11-03T07:17:03.354Z,20.75
2022-11-03T07:19:31.550Z,20.60
2022-11-03T07:22:03.505Z,18.02
2022-11-03T07:24:41.139Z,15.07
2022-11-03T07:27:08.561Z,13.10
2022-11-03T07:29:36.354Z,12.93
2022-11-03T07:32:12.233Z,16.30
2022-11-03T07:34:39.638Z,17.45
2022-11-03T07:39:39.288Z,17.15
2022-11-03T07:42:16.197Z,16.27
2022-11-03T07:44:43.708Z,13.40
2022-11-03T07:47:21.301Z,10.05
2022-11-03T07:52:32.152Z,17.02
2022-11-03T07:55:00.288Z,16.80
2022-11-03T07:57:30.613Z,17.85
2022-11-03T08:00:02.651Z,19.33
2022-11-03T08:02:49.998Z,18.50
2022-11-03T08:07:47.203Z,33.35
2022-11-03T08:10:14.366Z,19.77
2022-11-03T08:12:45.150Z,12.77
2022-11-03T08:15:12.784Z,14.60
2022-11-03T08:17:42.858Z,15.30
2022-11-03T08:20:11.484Z,16.13
2022-11-03T08:22:49.868Z,17.40
2022-11-03T08:25:30.094Z,19.58
2022-11-03T08:27:57.786Z,21.38
2022-11-03T08:30:27.702Z,19.27
2022-11-03T08:32:55.325Z,21.35
2022-11-03T08:35:25.246Z,19.60
2022-11-03T08:37:54.579Z,20.10
2022-11-03T08:40:23.103Z,17.50
2022-11-03T08:42:51.120Z,15.88
2022-11-03T08:45:19.465Z,13.93
2022-11-03T08:47:47.051Z,12.70
2022-11-03T08:50:14.291Z,11.30
2022-11-03T08:52:41.522Z,7.78
2022-11-03T08:55:10.919Z,5.95
2022-11-03T08:57:38.172Z,5.35
2022-11-03T09:00:07.456Z,3.75
2022-11-03T09:02:35.767Z,3.35
2022-11-03T09:05:03.924Z,3.20
2022-11-03T09:10:20.332Z,2.78
2022-11-03T09:12:50.957Z,3.03
2022-11-03T09:15:18.392Z,4.25
2022-11-03T09:17:46.456Z,4.95
2022-11-03T09:20:15.664Z,5.97
2022-11-03T09:22:43.305Z,2.78
2022-11-03T09:25:10.733Z,2.58
2022-11-03T09:27:38.450Z,2.70
2022-11-03T09:30:15.829Z,2.50
2022-11-03T09:32:43.478Z,2.58
2022-11-03T09:35:12.824Z,2.60
2022-11-03T09:37:40.502Z,2.55
2022-11-03T09:40:10.832Z,2.42
2022-11-03T09:42:39.905Z,2.25
2022-11-03T09:45:09.066Z,2.92
2022-11-03T09:47:38.203Z,3.67
2022-11-03T09:50:08.239Z,2.80
2022-11-03T09:52:38.031Z,2.35
2022-11-03T09:55:15.671Z,2.80
2022-11-03T09:57:45.661Z,2.20
2022-11-03T10:00:23.886Z,2.70
2022-11-03T10:02:53.016Z,2.60
2022-11-03T10:05:24.812Z,2.10
2022-11-03T10:07:58.884Z,1.63
2022-11-03T10:10:26.899Z,1.90
2022-11-03T10:12:55.389Z,2.20
2022-11-03T10:15:23.952Z,1.05
2022-11-03T10:17:53.668Z,1.23
2022-11-03T10:20:22.112Z,0.73
2022-11-03T10:22:54.737Z,0.90
2022-11-03T10:25:36.334Z,0.93
2022-11-03T10:28:15.673Z,0.90
2022-11-03T10:31:10.012Z,1.08
2022-11-03T10:33:38.345Z,0.93
2022-11-03T10:36:07.818Z,1.10
2022-11-03T10:38:36.422Z,1.02
2022-11-03T10:41:14.874Z,1.00
2022-11-03T10:43:44.409Z,0.98
2022-11-03T10:46:29.472Z,0.90
2022-11-03T10:49:14.154Z,0.95
2022-11-03T10:51:43.918Z,1.20
2022-11-03T10:54:14.647Z,0.80
2022-11-03T10:56:43.702Z,0.93
2022-11-03T10:59:16.333Z,0.80
2022-11-03T11:01:43.943Z,0.73
2022-11-03T11:04:22.859Z,0.82
2022-11-03T11:06:51.559Z,1.88
2022-11-03T11:09:26.810Z,0.98
2022-11-03T11:12:09.094Z,0.80
2022-11-03T11:14:39.241Z,0.98
2022-11-03T11:17:06.698Z,1.48
2022-11-03T11:19:53.822Z,1.13
2022-11-03T11:22:23.892Z,0.90
2022-11-03T11:24:51.014Z,1.00
2022-11-03T11:27:47.278Z,1.65
2022-11-03T11:30:20.355Z,1.20
2022-11-03T11:32:48.378Z,1.13
2022-11-03T11:35:27.363Z,1.00
2022-11-03T11:37:55.012Z,1.00
2022-11-03T11:40:25.296Z,0.80
2022-11-03T11:43:04.775Z,0.88
2022-11-03T11:45:51.272Z,0.90
2022-11-03T11:48:19.390Z,0.90
2022-11-03T11:50:47.062Z,1.10
2022-11-03T11:53:15.080Z,1.10
2022-11-03T11:55:47.772Z,0.95
2022-11-03T11:58:17.813Z,0.93
2022-11-03T12:00:55.541Z,1.27
2022-11-03T12:03:25.900Z,0.90
2022-11-03T12:05:53.180Z,0.77
2022-11-03T12:08:21.319Z,1.15
2022-11-03T12:10:55.739Z,1.40
2022-11-03T12:13:37.265Z,1.52
2022-11-03T12:16:04.513Z,1.75
2022-11-03T12:18:47.724Z,1.48
2022-11-03T12:21:36.400Z,1.63
2022-11-03T12:24:23.497Z,1.40
2022-11-03T12:26:50.661Z,1.65
2022-11-03T12:29:17.791Z,1.70
2022-11-03T12:31:45.002Z,2.20
2022-11-03T12:34:12.234Z,1.15
2022-11-03T12:36:39.454Z,0.90
2022-11-03T12:39:06.648Z,1.52
2022-11-03T12:41:33.943Z,1.13
2022-11-03T12:44:01.259Z,1.10
2022-11-03T12:46:28.641Z,1.17
2022-11-03T12:48:55.825Z,1.48
2022-11-03T12:51:24.327Z,1.05
2022-11-03T12:53:52.029Z,1.20
2022-11-03T12:56:19.714Z,1.05
2022-11-03T12:58:46.949Z,1.20
2022-11-03T13:01:14.303Z,1.50
2022-11-03T13:03:42.528Z,0.77
2022-11-03T13:06:14.703Z,1.40
2022-11-03T13:08:42.090Z,1.40
2022-11-03T13:11:29.245Z,2.97
2022-11-03T13:13:56.780Z,1.45
2022-11-03T13:16:24.010Z,1.55
2022-11-03T13:18:51.251Z,1.45
2022-11-03T13:21:18.550Z,1.58
2022-11-03T13:23:45.974Z,1.10
2022-11-03T13:26:13.204Z,0.95
2022-11-03T13:28:40.632Z,1.17
2022-11-03T13:31:07.778Z,1.23
2022-11-03T13:33:34.907Z,1.20
2022-11-03T13:36:02.116Z,1.30
2022-11-03T13:38:29.384Z,1.58
2022-11-03T13:40:59.279Z,1.20
2022-11-03T13:43:30.941Z,1.45
2022-11-03T13:46:02.230Z,1.30
2022-11-03T13:51:18.511Z,1.20
2022-11-03T14:07:07.578Z,1.20
2022-11-03T14:12:20.659Z,1.70
2022-11-03T14:14:47.886Z,1.75
2022-11-03T14:17:15.087Z,1.50
2022-11-03T14:19:47.269Z,1.27
2022-11-03T14:22:15.995Z,1.38
2022-11-03T14:24:43.221Z,1.30
2022-11-03T14:27:10.449Z,1.27
2022-11-03T14:29:37.780Z,1.45
2022-11-03T14:32:05.241Z,1.23
2022-11-03T14:34:32.514Z,1.40
2022-11-03T14:36:59.838Z,1.35
2022-11-03T14:39:27.341Z,1.58
2022-11-03T14:42:03.482Z,1.42
2022-11-03T14:44:34.401Z,1.25
2022-11-03T14:47:02.117Z,1.55
2022-11-03T14:49:29.830Z,1.73
2022-11-03T14:51:57.335Z,1.42
2022-11-03T14:54:24.913Z,1.70
2022-11-03T14:56:52.503Z,1.63
2022-11-03T14:59:19.831Z,1.95
2022-11-03T15:01:47.721Z,2.22
2022-11-03T15:04:15.146Z,2.38
2022-11-03T15:06:42.681Z,2.50
2022-11-03T15:09:10.397Z,2.72
2022-11-03T15:11:37.732Z,86.55
2022-11-03T15:14:05.664Z,8.10
2022-11-03T15:16:34.616Z,38.17
2022-11-03T15:19:03.464Z,9.43
2022-11-03T15:21:30.867Z,4.88
2022-11-03T15:26:45.862Z,2.97
2022-11-03T15:29:13.144Z,3.08
2022-11-03T15:31:46.275Z,3.10
2022-11-03T15:34:15.321Z,2.00
2022-11-03T15:36:42.701Z,2.45
2022-11-03T15:39:09.840Z,1.88
2022-11-03T15:41:37.008Z,2.03
2022-11-03T15:44:04.146Z,2.80
2022-11-03T15:46:31.314Z,3.00
2022-11-03T15:48:58.443Z,3.08
2022-11-03T15:51:26.657Z,3.90
2022-11-03T15:53:58.581Z,5.10
2022-11-03T15:56:27.009Z,6.85
2022-11-03T15:58:54.318Z,7.85
2022-11-03T16:01:21.760Z,9.07
2022-11-03T16:03:49.148Z,11.23
2022-11-03T16:06:16.642Z,9.85
2022-11-03T16:08:43.820Z,11.45
2022-11-03T16:11:10.961Z,12.75
2022-11-03T16:13:38.170Z,13.05
2022-11-03T16:16:05.580Z,12.98
2022-11-03T16:18:32.758Z,11.50
2022-11-03T16:20:59.965Z,8.68
2022-11-03T16:23:27.216Z,10.18
2022-11-03T16:25:54.457Z,17.00
2022-11-03T16:28:21.653Z,12.52
2022-11-03T16:30:54.081Z,13.80
2022-11-03T16:33:21.712Z,13.98
2022-11-03T16:35:48.897Z,11.30
2022-11-03T16:38:16.062Z,10.38
2022-11-03T16:40:43.470Z,9.13
2022-11-03T16:43:10.678Z,9.85
2022-11-03T16:45:38.411Z,9.80
2022-11-03T16:48:06.824Z,9.32
2022-11-03T16:50:34.492Z,9.80
2022-11-03T16:53:01.772Z,8.50
2022-11-03T16:55:28.946Z,8.13
2022-11-03T16:57:56.199Z,7.70
2022-11-03T17:00:24.280Z,9.35
2022-11-03T17:02:51.508Z,8.98
2022-11-03T17:05:20.782Z,7.38
2022-11-03T17:07:53.274Z,7.30
2022-11-03T17:10:21.697Z,6.63
2022-11-03T17:12:51.173Z,6.28
2022-11-03T17:15:18.585Z,8.00
2022-11-03T17:17:45.876Z,8.93
2022-11-03T17:20:13.652Z,13.02
2022-11-03T17:22:40.989Z,11.93
2022-11-03T17:25:12.230Z,18.80
2022-11-03T17:27:46.693Z,21.92
2022-11-03T17:30:25.096Z,18.67
2022-11-03T17:32:53.605Z,18.05
2022-11-03T17:35:39.584Z,15.13
2022-11-03T17:38:08.928Z,12.45
2022-11-03T17:40:36.657Z,11.18
2022-11-03T17:43:05.253Z,11.68
2022-11-03T17:45:33.287Z,9.10
2022-11-03T17:48:00.543Z,10.68
2022-11-03T17:50:27.911Z,11.43
2022-11-03T17:52:55.279Z,12.15
2022-11-03T17:55:32.936Z,11.43
2022-11-03T17:58:02.233Z,11.55
2022-11-03T18:00:29.628Z,11.43
2022-11-03T18:02:57.401Z,10.77
2022-11-03T18:05:30.264Z,11.52
2022-11-03T18:07:58.608Z,11.93
2022-11-03T18:10:27.690Z,10.40
2022-11-03T18:13:14.934Z,12.27
2022-11-03T18:15:42.346Z,11.23
2022-11-03T18:18:13.792Z,9.63
2022-11-03T18:20:42.960Z,10.38
2022-11-03T18:23:15.715Z,10.23
2022-11-03T18:25:43.071Z,8.77
2022-11-03T18:28:10.576Z,9.50
2022-11-03T18:30:38.830Z,8.98
2022-11-03T18:33:06.665Z,9.80
2022-11-03T18:35:34.555Z,10.18
2022-11-03T18:38:04.612Z,11.05
2022-11-03T18:40:34.149Z,13.10
2022-11-03T18:43:01.461Z,12.88
2022-11-03T18:45:28.672Z,12.13
2022-11-03T18:47:56.021Z,12.43
2022-11-03T18:50:23.247Z,10.75
2022-11-03T18:52:52.180Z,10.93
2022-11-03T18:55:19.443Z,10.80
2022-11-03T18:57:46.911Z,10.70
2022-11-03T19:00:21.556Z,9.15
2022-11-03T19:02:49.123Z,9.25
2022-11-03T19:05:16.631Z,8.93
2022-11-03T19:07:45.375Z,9.65
2022-11-03T19:10:17.927Z,8.70
2022-11-03T19:12:45.508Z,9.48
2022-11-03T19:15:21.007Z,8.63
2022-11-03T19:17:49.371Z,9.20
2022-11-03T19:20:18.268Z,12.95
2022-11-03T19:22:46.294Z,10.02
2022-11-03T19:25:14.837Z,9.68
2022-11-03T19:27:43.943Z,7.53
2022-11-03T19:30:16.073Z,7.13
2022-11-03T19:32:45.568Z,7.55
2022-11-03T19:35:23.270Z,7.30
2022-11-03T19:37:51.831Z,6.50
2022-11-03T19:40:20.124Z,7.70
2022-11-03T19:42:48.812Z,7.78
2022-11-03T19:45:20.134Z,7.78
2022-11-03T19:48:18.297Z,6.72
2022-11-03T19:50:37.759Z,7.70
2022-11-03T19:53:06.633Z,6.15
2022-11-03T19:55:41.289Z,6.97
2022-11-03T19:58:14.165Z,6.22
2022-11-03T20:00:41.707Z,6.38
2022-11-03T20:03:08.945Z,6.90
2022-11-03T20:05:36.350Z,5.75
2022-11-03T20:08:05.404Z,5.25
2022-11-03T20:10:35.885Z,3.72
2022-11-03T20:13:04.221Z,4.60
2022-11-03T20:15:31.575Z,3.50
2022-11-03T20:17:58.924Z,6.65
2022-11-03T20:20:29.930Z,4.97
2022-11-03T20:22:59.985Z,3.78
2022-11-03T20:25:28.461Z,7.68
2022-11-03T20:27:56.444Z,7.00
2022-11-03T20:30:24.856Z,7.28
2022-11-03T20:32:52.488Z,7.70
2022-11-03T20:35:24.023Z,7.43
2022-11-03T20:37:53.718Z,5.97
2022-11-03T20:40:22.213Z,7.38
2022-11-03T20:42:51.091Z,6.10
2022-11-03T20:45:21.302Z,6.70
2022-11-03T20:47:48.833Z,5.78
2022-11-03T20:50:17.199Z,6.18
2022-11-03T20:52:45.095Z,5.57
2022-11-03T20:55:19.971Z,5.50
2022-11-03T20:57:47.961Z,5.75
2022-11-03T21:00:16.969Z,5.63
2022-11-03T21:02:44.868Z,7.15
2022-11-03T21:05:19.658Z,5.82
2022-11-03T21:07:46.983Z,6.07
2022-11-03T21:10:20.321Z,7.03
2022-11-03T21:12:48.157Z,6.65
2022-11-03T21:15:44.616Z,6.38
2022-11-03T21:18:43.853Z,5.43
2022-11-03T21:21:12.414Z,6.10
2022-11-03T21:23:41.052Z,6.25
2022-11-03T21:26:10.249Z,6.32
2022-11-03T21:28:37.435Z,8.18
2022-11-03T21:31:04.756Z,6.07
2022-11-03T21:33:31.950Z,6.97
2022-11-03T21:35:59.182Z,6.97
2022-11-03T21:38:26.393Z,6.53
2022-11-03T21:41:13.756Z,6.00
2022-11-03T21:44:04.499Z,6.32
2022-11-03T21:46:31.808Z,6.15
2022-11-03T21:49:17.705Z,5.95
2022-11-03T21:51:45.121Z,5.75
2022-11-03T21:54:12.360Z,5.60
2022-11-03T21:56:39.733Z,5.65
2022-11-03T21:59:06.953Z,5.13
2022-11-03T22:01:34.353Z,5.57
2022-11-03T22:04:01.720Z,6.57
2022-11-03T22:06:29.004Z,5.88
2022-11-03T22:08:56.289Z,5.57
2022-11-03T22:11:23.861Z,6.25
2022-11-03T22:13:51.709Z,6.43
2022-11-03T22:16:37.290Z,5.70
2022-11-03T22:19:24.069Z,5.65
2022-11-03T22:22:10.067Z,5.97
2022-11-03T22:24:56.450Z,5.85
2022-11-03T22:27:23.878Z,5.05
2022-11-03T22:30:09.915Z,5.50
2022-11-03T22:32:37.499Z,5.30
2022-11-03T22:35:25.311Z,4.70
2022-11-03T22:38:08.053Z,5.38
2022-11-03T22:40:54.974Z,4.87
2022-11-03T22:43:41.326Z,4.55
2022-11-03T22:46:09.351Z,5.05
2022-11-03T22:48:36.890Z,4.82
2022-11-03T22:51:04.162Z,4.05
2022-11-03T22:53:50.795Z,4.95
2022-11-03T22:56:18.712Z,4.00
2022-11-03T22:58:46.348Z,3.65
2022-11-03T23:01:15.102Z,4.40
2022-11-03T23:03:42.845Z,4.18
2022-11-03T23:06:11.612Z,3.85
2022-11-03T23:08:39.669Z,4.13
2022-11-03T23:11:09.803Z,3.53
2022-11-03T23:13:37.419Z,3.60
2022-11-03T23:16:23.914Z,3.85
2022-11-03T23:19:10.252Z,3.90
2022-11-03T23:21:37.803Z,3.88
2022-11-03T23:24:28.212Z,3.20
2022-11-03T23:26:55.385Z,3.30
2022-11-03T23:29:22.595Z,3.67
2022-11-03T23:31:49.835Z,3.60
2022-11-03T23:34:17.080Z,5.22
2022-11-03T23:36:44.582Z,4.40
2022-11-03T23:39:13.669Z,2.83
2022-11-03T23:41:40.962Z,2.97
2022-11-03T23:44:08.490Z,3.05
2022-11-03T23:46:54.183Z,3.17
2022-11-03T23:49:21.330Z,3.70
2022-11-03T23:51:48.490Z,3.40
2022-11-03T23:54:15.712Z,3.83
2022-11-03T23:57:02.856Z,3.97
2022-11-03T23:59:30.848Z,3.58
